sensor_id;sensor_type;location;lat;lon;timestamp;P1;durP1;ratioP1;P2;durP2;ratioP2
9942;SDS011;5010;45.080;7.634;2023-11-18T00:00:34;13.30;;;6.22;;
9942;SDS011;5010;45.080;7.634;2023-11-18T00:03:02;15.75;;;6.50;;
9942;SDS011;5010;45.080;7.634;2023-11-18T00:05:30;14.60;;;6.43;;
9942;SDS011;5010;45.080;7.634;2023-11-18T00:08:02;13.25;;;4.35;;
9942;SDS011;5010;45.080;7.634;2023-11-18T00:10:29;14.65;;;5.80;;
9942;SDS011;5010;45.080;7.634;2023-11-18T00:12:56;14.63;;;4.90;;
9942;SDS011;5010;45.080;7.634;2023-11-18T00:15:23;13.90;;;5.15;;
9942;SDS011;5010;45.080;7.634;2023-11-18T00:17:51;14.82;;;4.97;;
9942;SDS011;5010;45.080;7.634;2023-11-18T00:20:18;13.50;;;4.97;;
9942;SDS011;5010;45.080;7.634;2023-11-18T00:22:48;14.00;;;5.72;;
9942;SDS011;5010;45.080;7.634;2023-11-18T00:25:17;19.63;;;6.53;;
9942;SDS011;5010;45.080;7.634;2023-11-18T00:27:45;15.63;;;5.75;;
9942;SDS011;5010;45.080;7.634;2023-11-18T00:30:12;14.82;;;5.75;;
9942;SDS011;5010;45.080;7.634;2023-11-18T00:32:39;14.45;;;5.40;;
9942;SDS011;5010;45.080;7.634;2023-11-18T00:35:07;16.33;;;7.22;;
9942;SDS011;5010;45.080;7.634;2023-11-18T00:37:35;15.70;;;7.03;;
9942;SDS011;5010;45.080;7.634;2023-11-18T00:40:03;14.25;;;6.38;;
9942;SDS011;5010;45.080;7.634;2023-11-18T00:42:33;14.57;;;5.20;;
9942;SDS011;5010;45.080;7.634;2023-11-18T00:45:01;15.27;;;6.22;;
9942;SDS011;5010;45.080;7.634;2023-11-18T00:47:29;16.67;;;6.22;;
9942;SDS011;5010;45.080;7.634;2023-11-18T00:49:56;15.43;;;5.43;;
9942;SDS011;5010;45.080;7.634;2023-11-18T00:52:26;14.30;;;5.95;;
9942;SDS011;5010;45.080;7.634;2023-11-18T00:54:54;16.25;;;7.32;;
9942;SDS011;5010;45.080;7.634;2023-11-18T00:57:21;16.52;;;8.48;;
9942;SDS011;5010;45.080;7.634;2023-11-18T00:59:50;15.07;;;6.32;;
9942;SDS011;5010;45.080;7.634;2023-11-18T01:02:17;13.70;;;6.20;;
9942;SDS011;5010;45.080;7.634;2023-11-18T01:04:44;15.68;;;5.97;;
9942;SDS011;5010;45.080;7.634;2023-11-18T01:07:11;16.08;;;6.47;;
9942;SDS011;5010;45.080;7.634;2023-11-18T01:09:39;14.63;;;6.68;;
9942;SDS011;5010;45.080;7.634;2023-11-18T01:12:06;13.50;;;5.60;;
9942;SDS011;5010;45.080;7.634;2023-11-18T01:14:35;16.17;;;6.97;;
9942;SDS011;5010;45.080;7.634;2023-11-18T01:17:04;15.20;;;7.20;;
9942;SDS011;5010;45.080;7.634;2023-11-18T01:19:31;18.35;;;7.32;;
9942;SDS011;5010;45.080;7.634;2023-11-18T01:21:59;16.50;;;5.40;;
9942;SDS011;5010;45.080;7.634;2023-11-18T01:24:30;15.93;;;6.68;;
9942;SDS011;5010;45.080;7.634;2023-11-18T01:26:57;15.50;;;7.22;;
9942;SDS011;5010;45.080;7.634;2023-11-18T01:29:24;16.40;;;8.25;;
9942;SDS011;5010;45.080;7.634;2023-11-18T01:31:52;16.90;;;6.00;;
9942;SDS011;5010;45.080;7.634;2023-11-18T01:34:22;14.38;;;6.65;;
9942;SDS011;5010;45.080;7.634;2023-11-18T01:36:49;13.48;;;5.82;;
9942;SDS011;5010;45.080;7.634;2023-11-18T01:39:16;14.68;;;6.20;;
9942;SDS011;5010;45.080;7.634;2023-11-18T01:41:43;13.95;;;6.80;;
9942;SDS011;5010;45.080;7.634;2023-11-18T01:44:11;15.35;;;6.00;;
9942;SDS011;5010;45.080;7.634;2023-11-18T01:46:39;16.17;;;6.78;;
9942;SDS011;5010;45.080;7.634;2023-11-18T01:49:10;15.02;;;6.60;;
9942;SDS011;5010;45.080;7.634;2023-11-18T01:51:40;15.57;;;6.57;;
9942;SDS011;5010;45.080;7.634;2023-11-18T01:54:07;15.15;;;6.60;;
9942;SDS011;5010;45.080;7.634;2023-11-18T01:56:36;17.30;;;8.70;;
9942;SDS011;5010;45.080;7.634;2023-11-18T01:59:04;15.50;;;6.57;;
9942;SDS011;5010;45.080;7.634;2023-11-18T02:01:35;14.70;;;6.68;;
9942;SDS011;5010;45.080;7.634;2023-11-18T02:04:02;15.93;;;6.57;;
9942;SDS011;5010;45.080;7.634;2023-11-18T02:06:32;14.35;;;7.28;;
9942;SDS011;5010;45.080;7.634;2023-11-18T02:09:02;14.85;;;6.97;;
9942;SDS011;5010;45.080;7.634;2023-11-18T02:11:31;15.27;;;7.38;;
9942;SDS011;5010;45.080;7.634;2023-11-18T02:14:00;14.48;;;6.68;;
9942;SDS011;5010;45.080;7.634;2023-11-18T02:16:29;17.27;;;6.53;;
9942;SDS011;5010;45.080;7.634;2023-11-18T02:18:56;13.77;;;6.05;;
9942;SDS011;5010;45.080;7.634;2023-11-18T02:21:24;14.93;;;7.05;;
9942;SDS011;5010;45.080;7.634;2023-11-18T02:23:52;17.88;;;6.65;;
9942;SDS011;5010;45.080;7.634;2023-11-18T02:26:24;15.35;;;6.22;;
9942;SDS011;5010;45.080;7.634;2023-11-18T02:28:52;13.38;;;5.55;;
9942;SDS011;5010;45.080;7.634;2023-11-18T02:31:21;17.10;;;5.85;;
9942;SDS011;5010;45.080;7.634;2023-11-18T02:33:52;16.40;;;7.13;;
9942;SDS011;5010;45.080;7.634;2023-11-18T02:36:23;14.80;;;7.75;;
9942;SDS011;5010;45.080;7.634;2023-11-18T02:39:00;15.20;;;5.95;;
9942;SDS011;5010;45.080;7.634;2023-11-18T02:41:30;16.17;;;6.43;;
9942;SDS011;5010;45.080;7.634;2023-11-18T02:43:57;14.75;;;6.13;;
9942;SDS011;5010;45.080;7.634;2023-11-18T02:46:25;15.30;;;7.03;;
9942;SDS011;5010;45.080;7.634;2023-11-18T02:48:52;14.57;;;6.13;;
9942;SDS011;5010;45.080;7.634;2023-11-18T02:51:20;17.55;;;5.90;;
9942;SDS011;5010;45.080;7.634;2023-11-18T02:53:47;16.00;;;7.18;;
9942;SDS011;5010;45.080;7.634;2023-11-18T02:56:15;14.00;;;6.80;;
9942;SDS011;5010;45.080;7.634;2023-11-18T02:58:45;16.70;;;7.38;;
9942;SDS011;5010;45.080;7.634;2023-11-18T03:01:12;13.77;;;6.07;;
9942;SDS011;5010;45.080;7.634;2023-11-18T03:03:39;16.77;;;6.97;;
9942;SDS011;5010;45.080;7.634;2023-11-18T03:06:07;13.82;;;5.93;;
9942;SDS011;5010;45.080;7.634;2023-11-18T03:08:36;15.18;;;6.20;;
9942;SDS011;5010;45.080;7.634;2023-11-18T03:11:05;15.75;;;6.88;;
9942;SDS011;5010;45.080;7.634;2023-11-18T03:13:34;15.57;;;6.93;;
9942;SDS011;5010;45.080;7.634;2023-11-18T03:16:01;14.48;;;6.78;;
9942;SDS011;5010;45.080;7.634;2023-11-18T03:18:29;14.55;;;6.13;;
9942;SDS011;5010;45.080;7.634;2023-11-18T03:20:56;13.10;;;6.72;;
9942;SDS011;5010;45.080;7.634;2023-11-18T03:23:25;15.23;;;7.30;;
9942;SDS011;5010;45.080;7.634;2023-11-18T03:25:54;15.43;;;6.35;;
9942;SDS011;5010;45.080;7.634;2023-11-18T03:28:21;13.98;;;6.45;;
9942;SDS011;5010;45.080;7.634;2023-11-18T03:30:49;15.57;;;9.00;;
9942;SDS011;5010;45.080;7.634;2023-11-18T03:33:17;14.82;;;7.75;;
9942;SDS011;5010;45.080;7.634;2023-11-18T03:35:44;14.85;;;6.45;;
9942;SDS011;5010;45.080;7.634;2023-11-18T03:38:13;16.70;;;7.00;;
9942;SDS011;5010;45.080;7.634;2023-11-18T03:40:42;13.93;;;5.65;;
9942;SDS011;5010;45.080;7.634;2023-11-18T03:43:11;15.98;;;8.68;;
9942;SDS011;5010;45.080;7.634;2023-11-18T03:45:38;17.35;;;6.80;;
9942;SDS011;5010;45.080;7.634;2023-11-18T03:48:06;14.70;;;6.53;;
9942;SDS011;5010;45.080;7.634;2023-11-18T03:50:34;13.95;;;6.30;;
9942;SDS011;5010;45.080;7.634;2023-11-18T03:53:02;14.52;;;6.38;;
9942;SDS011;5010;45.080;7.634;2023-11-18T03:55:29;14.43;;;6.53;;
9942;SDS011;5010;45.080;7.634;2023-11-18T03:57:56;18.70;;;6.63;;
9942;SDS011;5010;45.080;7.634;2023-11-18T04:00:23;20.63;;;7.18;;
9942;SDS011;5010;45.080;7.634;2023-11-18T04:02:54;18.35;;;7.53;;
9942;SDS011;5010;45.080;7.634;2023-11-18T04:05:23;15.35;;;7.70;;
9942;SDS011;5010;45.080;7.634;2023-11-18T04:07:51;14.70;;;6.10;;
9942;SDS011;5010;45.080;7.634;2023-11-18T04:10:19;15.45;;;6.40;;
9942;SDS011;5010;45.080;7.634;2023-11-18T04:12:47;16.65;;;7.13;;
9942;SDS011;5010;45.080;7.634;2023-11-18T04:15:14;16.33;;;6.40;;
9942;SDS011;5010;45.080;7.634;2023-11-18T04:17:42;14.05;;;6.63;;
9942;SDS011;5010;45.080;7.634;2023-11-18T04:20:10;14.75;;;6.93;;
9942;SDS011;5010;45.080;7.634;2023-11-18T04:22:38;14.85;;;6.13;;
9942;SDS011;5010;45.080;7.634;2023-11-18T04:25:07;16.67;;;6.88;;
9942;SDS011;5010;45.080;7.634;2023-11-18T04:27:35;15.60;;;6.68;;
9942;SDS011;5010;45.080;7.634;2023-11-18T04:30:02;14.55;;;6.78;;
9942;SDS011;5010;45.080;7.634;2023-11-18T04:32:29;14.88;;;6.03;;
9942;SDS011;5010;45.080;7.634;2023-11-18T04:34:58;14.45;;;6.75;;
9942;SDS011;5010;45.080;7.634;2023-11-18T04:37:31;15.48;;;6.97;;
9942;SDS011;5010;45.080;7.634;2023-11-18T04:39:59;15.25;;;7.00;;
9942;SDS011;5010;45.080;7.634;2023-11-18T04:42:27;13.07;;;4.85;;
9942;SDS011;5010;45.080;7.634;2023-11-18T04:44:58;15.07;;;6.60;;
9942;SDS011;5010;45.080;7.634;2023-11-18T04:47:34;15.07;;;6.30;;
9942;SDS011;5010;45.080;7.634;2023-11-18T04:50:02;17.08;;;6.30;;
9942;SDS011;5010;45.080;7.634;2023-11-18T04:52:30;14.07;;;6.30;;
9942;SDS011;5010;45.080;7.634;2023-11-18T04:54:59;15.45;;;6.40;;
9942;SDS011;5010;45.080;7.634;2023-11-18T04:57:28;16.10;;;6.18;;
9942;SDS011;5010;45.080;7.634;2023-11-18T04:59:55;13.63;;;5.80;;
9942;SDS011;5010;45.080;7.634;2023-11-18T05:02:23;16.23;;;5.32;;
9942;SDS011;5010;45.080;7.634;2023-11-18T05:04:50;15.07;;;6.22;;
9942;SDS011;5010;45.080;7.634;2023-11-18T05:07:17;13.60;;;5.78;;
9942;SDS011;5010;45.080;7.634;2023-11-18T05:09:44;15.05;;;7.82;;
9942;SDS011;5010;45.080;7.634;2023-11-18T05:12:11;13.60;;;6.90;;
9942;SDS011;5010;45.080;7.634;2023-11-18T05:14:40;13.45;;;6.20;;
9942;SDS011;5010;45.080;7.634;2023-11-18T05:17:07;15.75;;;7.45;;
9942;SDS011;5010;45.080;7.634;2023-11-18T05:19:34;14.23;;;5.90;;
9942;SDS011;5010;45.080;7.634;2023-11-18T05:22:02;15.02;;;6.57;;
9942;SDS011;5010;45.080;7.634;2023-11-18T05:24:29;13.32;;;5.85;;
9942;SDS011;5010;45.080;7.634;2023-11-18T05:26:57;13.50;;;6.30;;
9942;SDS011;5010;45.080;7.634;2023-11-18T05:29:26;13.05;;;5.57;;
9942;SDS011;5010;45.080;7.634;2023-11-18T05:31:55;13.63;;;6.47;;
9942;SDS011;5010;45.080;7.634;2023-11-18T05:34:22;15.85;;;5.78;;
9942;SDS011;5010;45.080;7.634;2023-11-18T05:36:49;12.90;;;5.18;;
9942;SDS011;5010;45.080;7.634;2023-11-18T05:39:19;15.77;;;5.85;;
9942;SDS011;5010;45.080;7.634;2023-11-18T05:41:46;14.10;;;6.05;;
9942;SDS011;5010;45.080;7.634;2023-11-18T05:44:15;14.32;;;5.90;;
9942;SDS011;5010;45.080;7.634;2023-11-18T05:46:44;12.95;;;5.20;;
9942;SDS011;5010;45.080;7.634;2023-11-18T05:49:14;14.10;;;6.10;;
9942;SDS011;5010;45.080;7.634;2023-11-18T05:51:41;14.43;;;6.28;;
9942;SDS011;5010;45.080;7.634;2023-11-18T05:54:08;15.25;;;5.78;;
9942;SDS011;5010;45.080;7.634;2023-11-18T05:56:35;15.75;;;5.82;;
9942;SDS011;5010;45.080;7.634;2023-11-18T05:59:02;13.77;;;5.28;;
9942;SDS011;5010;45.080;7.634;2023-11-18T06:01:29;15.52;;;5.70;;
9942;SDS011;5010;45.080;7.634;2023-11-18T06:03:56;14.50;;;5.13;;
9942;SDS011;5010;45.080;7.634;2023-11-18T06:06:27;13.63;;;5.03;;
9942;SDS011;5010;45.080;7.634;2023-11-18T06:08:57;12.77;;;5.10;;
9942;SDS011;5010;45.080;7.634;2023-11-18T06:11:29;13.40;;;5.30;;
9942;SDS011;5010;45.080;7.634;2023-11-18T06:13:57;13.32;;;4.90;;
9942;SDS011;5010;45.080;7.634;2023-11-18T06:16:25;14.07;;;5.55;;
9942;SDS011;5010;45.080;7.634;2023-11-18T06:18:52;13.73;;;5.95;;
9942;SDS011;5010;45.080;7.634;2023-11-18T06:21:20;14.93;;;5.80;;
9942;SDS011;5010;45.080;7.634;2023-11-18T06:23:51;14.13;;;5.70;;
9942;SDS011;5010;45.080;7.634;2023-11-18T06:26:19;14.07;;;5.75;;
9942;SDS011;5010;45.080;7.634;2023-11-18T06:28:47;15.23;;;6.15;;
9942;SDS011;5010;45.080;7.634;2023-11-18T06:31:15;16.00;;;6.47;;
9942;SDS011;5010;45.080;7.634;2023-11-18T06:33:43;15.10;;;5.88;;
9942;SDS011;5010;45.080;7.634;2023-11-18T06:36:16;14.75;;;5.63;;
9942;SDS011;5010;45.080;7.634;2023-11-18T06:38:43;14.15;;;5.25;;
9942;SDS011;5010;45.080;7.634;2023-11-18T06:41:12;13.48;;;5.72;;
9942;SDS011;5010;45.080;7.634;2023-11-18T06:43:41;15.13;;;6.30;;
9942;SDS011;5010;45.080;7.634;2023-11-18T06:46:17;14.00;;;5.72;;
9942;SDS011;5010;45.080;7.634;2023-11-18T06:48:46;14.07;;;5.03;;
9942;SDS011;5010;45.080;7.634;2023-11-18T06:51:14;13.50;;;5.75;;
9942;SDS011;5010;45.080;7.634;2023-11-18T06:53:41;13.20;;;5.18;;
9942;SDS011;5010;45.080;7.634;2023-11-18T06:56:09;13.52;;;5.97;;
9942;SDS011;5010;45.080;7.634;2023-11-18T06:58:38;13.95;;;5.43;;
9942;SDS011;5010;45.080;7.634;2023-11-18T07:01:08;13.40;;;5.07;;
9942;SDS011;5010;45.080;7.634;2023-11-18T07:03:35;13.90;;;5.65;;
9942;SDS011;5010;45.080;7.634;2023-11-18T07:06:03;13.00;;;5.25;;
9942;SDS011;5010;45.080;7.634;2023-11-18T07:08:31;14.77;;;6.15;;
9942;SDS011;5010;45.080;7.634;2023-11-18T07:11:00;14.32;;;6.00;;
9942;SDS011;5010;45.080;7.634;2023-11-18T07:13:27;12.70;;;4.75;;
9942;SDS011;5010;45.080;7.634;2023-11-18T07:15:56;14.77;;;5.43;;
9942;SDS011;5010;45.080;7.634;2023-11-18T07:18:23;13.77;;;5.72;;
9942;SDS011;5010;45.080;7.634;2023-11-18T07:20:51;15.95;;;6.55;;
9942;SDS011;5010;45.080;7.634;2023-11-18T07:23:18;14.40;;;7.28;;
9942;SDS011;5010;45.080;7.634;2023-11-18T07:25:45;17.02;;;7.20;;
9942;SDS011;5010;45.080;7.634;2023-11-18T07:28:13;14.43;;;6.07;;
9942;SDS011;5010;45.080;7.634;2023-11-18T07:30:42;16.30;;;5.80;;
9942;SDS011;5010;45.080;7.634;2023-11-18T07:33:13;15.60;;;5.32;;
9942;SDS011;5010;45.080;7.634;2023-11-18T07:35:41;13.98;;;5.60;;
9942;SDS011;5010;45.080;7.634;2023-11-18T07:38:08;14.63;;;5.22;;
9942;SDS011;5010;45.080;7.634;2023-11-18T07:40:35;14.95;;;6.85;;
9942;SDS011;5010;45.080;7.634;2023-11-18T07:43:07;16.35;;;6.72;;
9942;SDS011;5010;45.080;7.634;2023-11-18T07:45:35;16.65;;;6.50;;
9942;SDS011;5010;45.080;7.634;2023-11-18T07:48:05;17.33;;;5.63;;
9942;SDS011;5010;45.080;7.634;2023-11-18T07:50:34;14.40;;;5.97;;
9942;SDS011;5010;45.080;7.634;2023-11-18T07:53:02;16.02;;;5.47;;
9942;SDS011;5010;45.080;7.634;2023-11-18T07:55:31;14.88;;;6.22;;
9942;SDS011;5010;45.080;7.634;2023-11-18T07:57:59;15.35;;;5.78;;
9942;SDS011;5010;45.080;7.634;2023-11-18T08:00:27;14.40;;;6.55;;
9942;SDS011;5010;45.080;7.634;2023-11-18T08:02:56;15.90;;;6.90;;
9942;SDS011;5010;45.080;7.634;2023-11-18T08:05:25;16.15;;;6.65;;
9942;SDS011;5010;45.080;7.634;2023-11-18T08:07:54;15.43;;;6.88;;
9942;SDS011;5010;45.080;7.634;2023-11-18T08:10:21;16.25;;;6.47;;
9942;SDS011;5010;45.080;7.634;2023-11-18T08:12:50;14.90;;;7.80;;
9942;SDS011;5010;45.080;7.634;2023-11-18T08:15:19;20.30;;;8.88;;
9942;SDS011;5010;45.080;7.634;2023-11-18T08:17:47;16.80;;;6.45;;
9942;SDS011;5010;45.080;7.634;2023-11-18T08:20:16;15.07;;;7.50;;
9942;SDS011;5010;45.080;7.634;2023-11-18T08:22:43;16.75;;;7.75;;
9942;SDS011;5010;45.080;7.634;2023-11-18T08:25:15;17.85;;;8.00;;
9942;SDS011;5010;45.080;7.634;2023-11-18T08:27:42;17.23;;;8.60;;
9942;SDS011;5010;45.080;7.634;2023-11-18T08:30:11;14.63;;;7.15;;
9942;SDS011;5010;45.080;7.634;2023-11-18T08:32:38;15.32;;;6.50;;
9942;SDS011;5010;45.080;7.634;2023-11-18T08:35:09;19.13;;;8.32;;
9942;SDS011;5010;45.080;7.634;2023-11-18T08:37:38;16.77;;;8.90;;
9942;SDS011;5010;45.080;7.634;2023-11-18T08:40:22;19.38;;;10.45;;
9942;SDS011;5010;45.080;7.634;2023-11-18T08:42:52;16.75;;;8.00;;
9942;SDS011;5010;45.080;7.634;2023-11-18T08:45:23;19.42;;;8.38;;
9942;SDS011;5010;45.080;7.634;2023-11-18T08:47:53;18.27;;;9.57;;
9942;SDS011;5010;45.080;7.634;2023-11-18T08:50:20;21.92;;;8.75;;
9942;SDS011;5010;45.080;7.634;2023-11-18T08:52:49;17.17;;;9.63;;
9942;SDS011;5010;45.080;7.634;2023-11-18T08:55:19;18.17;;;10.18;;
9942;SDS011;5010;45.080;7.634;2023-11-18T08:57:52;17.98;;;8.18;;
9942;SDS011;5010;45.080;7.634;2023-11-18T09:00:24;17.98;;;8.27;;
9942;SDS011;5010;45.080;7.634;2023-11-18T09:03:08;16.67;;;10.07;;
9942;SDS011;5010;45.080;7.634;2023-11-18T09:05:42;19.83;;;8.75;;
9942;SDS011;5010;45.080;7.634;2023-11-18T09:08:21;18.27;;;9.15;;
9942;SDS011;5010;45.080;7.634;2023-11-18T09:10:49;17.42;;;9.07;;
9942;SDS011;5010;45.080;7.634;2023-11-18T09:13:20;18.67;;;10.50;;
9942;SDS011;5010;45.080;7.634;2023-11-18T09:15:47;18.92;;;9.70;;
9942;SDS011;5010;45.080;7.634;2023-11-18T09:18:15;16.52;;;10.00;;
9942;SDS011;5010;45.080;7.634;2023-11-18T09:20:43;26.25;;;8.95;;
9942;SDS011;5010;45.080;7.634;2023-11-18T09:23:12;18.05;;;8.38;;
9942;SDS011;5010;45.080;7.634;2023-11-18T09:25:40;17.10;;;7.97;;
9942;SDS011;5010;45.080;7.634;2023-11-18T09:28:11;18.38;;;8.10;;
9942;SDS011;5010;45.080;7.634;2023-11-18T09:30:41;17.80;;;9.27;;
9942;SDS011;5010;45.080;7.634;2023-11-18T09:33:17;15.05;;;7.50;;
9942;SDS011;5010;45.080;7.634;2023-11-18T09:35:51;16.17;;;8.18;;
9942;SDS011;5010;45.080;7.634;2023-11-18T09:38:21;16.05;;;8.73;;
9942;SDS011;5010;45.080;7.634;2023-11-18T09:40:49;15.60;;;8.40;;
9942;SDS011;5010;45.080;7.634;2023-11-18T09:43:17;17.05;;;8.00;;
9942;SDS011;5010;45.080;7.634;2023-11-18T09:45:48;15.93;;;8.70;;
9942;SDS011;5010;45.080;7.634;2023-11-18T09:48:18;18.67;;;7.90;;
9942;SDS011;5010;45.080;7.634;2023-11-18T09:50:50;17.60;;;9.57;;
9942;SDS011;5010;45.080;7.634;2023-11-18T09:53:18;14.98;;;7.80;;
9942;SDS011;5010;45.080;7.634;2023-11-18T09:55:52;20.00;;;10.63;;
9942;SDS011;5010;45.080;7.634;2023-11-18T09:58:25;15.60;;;8.10;;
9942;SDS011;5010;45.080;7.634;2023-11-18T10:01:00;18.10;;;9.27;;
9942;SDS011;5010;45.080;7.634;2023-11-18T10:03:29;15.70;;;9.32;;
9942;SDS011;5010;45.080;7.634;2023-11-18T10:05:56;16.15;;;9.02;;
9942;SDS011;5010;45.080;7.634;2023-11-18T10:08:30;17.42;;;8.68;;
9942;SDS011;5010;45.080;7.634;2023-11-18T10:10:57;16.75;;;9.27;;
9942;SDS011;5010;45.080;7.634;2023-11-18T10:13:30;18.00;;;8.80;;
9942;SDS011;5010;45.080;7.634;2023-11-18T10:16:01;17.23;;;8.30;;
9942;SDS011;5010;45.080;7.634;2023-11-18T10:18:30;19.05;;;8.40;;
9942;SDS011;5010;45.080;7.634;2023-11-18T10:21:00;17.85;;;8.48;;
9942;SDS011;5010;45.080;7.634;2023-11-18T10:23:29;17.98;;;8.68;;
9942;SDS011;5010;45.080;7.634;2023-11-18T10:25:59;17.35;;;7.68;;
9942;SDS011;5010;45.080;7.634;2023-11-18T10:28:29;17.05;;;8.18;;
9942;SDS011;5010;45.080;7.634;2023-11-18T10:30:59;16.92;;;7.47;;
9942;SDS011;5010;45.080;7.634;2023-11-18T10:33:30;15.65;;;7.93;;
9942;SDS011;5010;45.080;7.634;2023-11-18T10:35:57;14.32;;;5.15;;
9942;SDS011;5010;45.080;7.634;2023-11-18T10:38:29;16.50;;;7.75;;
9942;SDS011;5010;45.080;7.634;2023-11-18T10:40:57;16.45;;;6.93;;
9942;SDS011;5010;45.080;7.634;2023-11-18T10:43:26;16.92;;;7.45;;
9942;SDS011;5010;45.080;7.634;2023-11-18T10:46:05;15.85;;;8.43;;
9942;SDS011;5010;45.080;7.634;2023-11-18T10:48:38;16.38;;;6.28;;
9942;SDS011;5010;45.080;7.634;2023-11-18T10:51:08;17.90;;;6.82;;
9942;SDS011;5010;45.080;7.634;2023-11-18T10:53:38;16.02;;;8.23;;
9942;SDS011;5010;45.080;7.634;2023-11-18T10:56:16;17.00;;;8.07;;
9942;SDS011;5010;45.080;7.634;2023-11-18T10:58:49;16.67;;;6.95;;
9942;SDS011;5010;45.080;7.634;2023-11-18T11:01:19;15.88;;;8.77;;
9942;SDS011;5010;45.080;7.634;2023-11-18T11:03:55;16.60;;;9.05;;
9942;SDS011;5010;45.080;7.634;2023-11-18T11:06:23;16.40;;;8.30;;
9942;SDS011;5010;45.080;7.634;2023-11-18T11:08:51;16.80;;;9.02;;
9942;SDS011;5010;45.080;7.634;2023-11-18T11:11:19;17.50;;;7.22;;
9942;SDS011;5010;45.080;7.634;2023-11-18T11:13:49;17.30;;;8.95;;
9942;SDS011;5010;45.080;7.634;2023-11-18T11:16:18;15.90;;;8.27;;
9942;SDS011;5010;45.080;7.634;2023-11-18T11:18:48;18.88;;;9.27;;
9942;SDS011;5010;45.080;7.634;2023-11-18T11:21:21;18.90;;;9.60;;
9942;SDS011;5010;45.080;7.634;2023-11-18T11:23:50;17.55;;;7.43;;
9942;SDS011;5010;45.080;7.634;2023-11-18T11:26:23;15.82;;;8.18;;
9942;SDS011;5010;45.080;7.634;2023-11-18T11:28:57;15.40;;;6.95;;
9942;SDS011;5010;45.080;7.634;2023-11-18T11:31:26;17.58;;;9.90;;
9942;SDS011;5010;45.080;7.634;2023-11-18T11:33:58;15.52;;;7.55;;
9942;SDS011;5010;45.080;7.634;2023-11-18T11:36:29;18.45;;;7.93;;
9942;SDS011;5010;45.080;7.634;2023-11-18T11:38:58;15.90;;;6.90;;
9942;SDS011;5010;45.080;7.634;2023-11-18T11:41:26;14.85;;;6.28;;
9942;SDS011;5010;45.080;7.634;2023-11-18T11:43:54;13.80;;;6.32;;
9942;SDS011;5010;45.080;7.634;2023-11-18T11:46:23;16.15;;;6.90;;
9942;SDS011;5010;45.080;7.634;2023-11-18T11:48:52;17.40;;;6.43;;
9942;SDS011;5010;45.080;7.634;2023-11-18T11:51:22;14.45;;;7.13;;
9942;SDS011;5010;45.080;7.634;2023-11-18T11:53:57;16.45;;;7.05;;
9942;SDS011;5010;45.080;7.634;2023-11-18T11:56:39;16.80;;;6.75;;
9942;SDS011;5010;45.080;7.634;2023-11-18T11:59:05;16.25;;;7.20;;
9942;SDS011;5010;45.080;7.634;2023-11-18T12:01:36;15.98;;;6.70;;
9942;SDS011;5010;45.080;7.634;2023-11-18T12:04:03;15.27;;;6.47;;
9942;SDS011;5010;45.080;7.634;2023-11-18T12:06:36;15.55;;;6.03;;
9942;SDS011;5010;45.080;7.634;2023-11-18T12:09:09;16.42;;;6.10;;
9942;SDS011;5010;45.080;7.634;2023-11-18T12:11:44;15.55;;;6.78;;
9942;SDS011;5010;45.080;7.634;2023-11-18T12:14:14;16.00;;;6.15;;
9942;SDS011;5010;45.080;7.634;2023-11-18T12:16:57;15.02;;;5.82;;
9942;SDS011;5010;45.080;7.634;2023-11-18T12:19:29;16.15;;;5.47;;
9942;SDS011;5010;45.080;7.634;2023-11-18T12:21:57;15.10;;;6.20;;
9942;SDS011;5010;45.080;7.634;2023-11-18T12:24:27;14.80;;;6.28;;
9942;SDS011;5010;45.080;7.634;2023-11-18T12:26:58;14.43;;;6.55;;
9942;SDS011;5010;45.080;7.634;2023-11-18T12:29:31;16.35;;;6.82;;
9942;SDS011;5010;45.080;7.634;2023-11-18T12:31:59;14.20;;;6.43;;
9942;SDS011;5010;45.080;7.634;2023-11-18T12:37:17;14.55;;;5.50;;
9942;SDS011;5010;45.080;7.634;2023-11-18T12:45:32;14.77;;;6.20;;
9942;SDS011;5010;45.080;7.634;2023-11-18T12:48:06;14.27;;;5.20;;
9942;SDS011;5010;45.080;7.634;2023-11-18T12:50:37;14.85;;;6.75;;
9942;SDS011;5010;45.080;7.634;2023-11-18T12:53:05;13.55;;;6.30;;
9942;SDS011;5010;45.080;7.634;2023-11-18T12:55:34;16.67;;;5.70;;
9942;SDS011;5010;45.080;7.634;2023-11-18T12:58:01;13.85;;;7.60;;
9942;SDS011;5010;45.080;7.634;2023-11-18T13:00:32;15.65;;;7.72;;
9942;SDS011;5010;45.080;7.634;2023-11-18T13:03:00;14.48;;;5.85;;
9942;SDS011;5010;45.080;7.634;2023-11-18T13:05:28;13.80;;;6.22;;
9942;SDS011;5010;45.080;7.634;2023-11-18T13:07:56;14.45;;;5.65;;
9942;SDS011;5010;45.080;7.634;2023-11-18T13:10:24;15.10;;;6.38;;
9942;SDS011;5010;45.080;7.634;2023-11-18T13:12:52;16.65;;;6.55;;
9942;SDS011;5010;45.080;7.634;2023-11-18T13:15:19;15.50;;;6.72;;
9942;SDS011;5010;45.080;7.634;2023-11-18T13:18:01;14.02;;;5.50;;
9942;SDS011;5010;45.080;7.634;2023-11-18T13:20:31;15.68;;;6.10;;
9942;SDS011;5010;45.080;7.634;2023-11-18T13:23:00;14.30;;;5.20;;
9942;SDS011;5010;45.080;7.634;2023-11-18T13:25:33;13.70;;;4.95;;
9942;SDS011;5010;45.080;7.634;2023-11-18T13:28:01;13.45;;;5.45;;
9942;SDS011;5010;45.080;7.634;2023-11-18T13:30:28;14.90;;;5.50;;
9942;SDS011;5010;45.080;7.634;2023-11-18T13:32:55;14.50;;;5.28;;
9942;SDS011;5010;45.080;7.634;2023-11-18T13:35:24;13.55;;;5.60;;
9942;SDS011;5010;45.080;7.634;2023-11-18T13:37:51;13.00;;;5.50;;
9942;SDS011;5010;45.080;7.634;2023-11-18T13:40:19;13.50;;;4.55;;
9942;SDS011;5010;45.080;7.634;2023-11-18T13:42:46;15.70;;;5.25;;
9942;SDS011;5010;45.080;7.634;2023-11-18T13:45:13;13.02;;;5.47;;
9942;SDS011;5010;45.080;7.634;2023-11-18T13:47:50;12.80;;;4.90;;
9942;SDS011;5010;45.080;7.634;2023-11-18T13:50:18;13.25;;;5.65;;
9942;SDS011;5010;45.080;7.634;2023-11-18T13:52:47;14.10;;;5.90;;
9942;SDS011;5010;45.080;7.634;2023-11-18T13:55:15;12.70;;;4.60;;
9942;SDS011;5010;45.080;7.634;2023-11-18T13:57:50;14.55;;;5.53;;
9942;SDS011;5010;45.080;7.634;2023-11-18T14:00:17;14.15;;;5.78;;
9942;SDS011;5010;45.080;7.634;2023-11-18T14:02:48;13.18;;;4.22;;
9942;SDS011;5010;45.080;7.634;2023-11-18T14:05:16;12.23;;;4.32;;
9942;SDS011;5010;45.080;7.634;2023-11-18T14:07:46;12.50;;;4.80;;
9942;SDS011;5010;45.080;7.634;2023-11-18T14:10:14;12.65;;;4.70;;
9942;SDS011;5010;45.080;7.634;2023-11-18T14:12:57;14.18;;;4.97;;
9942;SDS011;5010;45.080;7.634;2023-11-18T14:15:25;13.20;;;5.82;;
9942;SDS011;5010;45.080;7.634;2023-11-18T14:17:52;12.45;;;4.53;;
9942;SDS011;5010;45.080;7.634;2023-11-18T14:20:19;14.90;;;5.20;;
9942;SDS011;5010;45.080;7.634;2023-11-18T14:22:48;13.10;;;4.60;;
9942;SDS011;5010;45.080;7.634;2023-11-18T14:25:17;14.32;;;5.03;;
9942;SDS011;5010;45.080;7.634;2023-11-18T14:27:44;12.38;;;4.22;;
9942;SDS011;5010;45.080;7.634;2023-11-18T14:30:13;11.85;;;4.45;;
9942;SDS011;5010;45.080;7.634;2023-11-18T14:32:41;12.05;;;4.18;;
9942;SDS011;5010;45.080;7.634;2023-11-18T14:35:08;12.38;;;4.03;;
9942;SDS011;5010;45.080;7.634;2023-11-18T14:37:37;11.90;;;4.20;;
9942;SDS011;5010;45.080;7.634;2023-11-18T14:40:09;12.40;;;4.18;;
9942;SDS011;5010;45.080;7.634;2023-11-18T14:42:38;12.13;;;3.47;;
9942;SDS011;5010;45.080;7.634;2023-11-18T14:45:06;12.23;;;4.35;;
9942;SDS011;5010;45.080;7.634;2023-11-18T14:47:34;12.48;;;5.45;;
9942;SDS011;5010;45.080;7.634;2023-11-18T14:50:01;12.50;;;4.38;;
9942;SDS011;5010;45.080;7.634;2023-11-18T14:52:40;12.30;;;4.05;;
9942;SDS011;5010;45.080;7.634;2023-11-18T14:55:09;12.57;;;4.88;;
9942;SDS011;5010;45.080;7.634;2023-11-18T14:57:37;12.13;;;4.57;;
9942;SDS011;5010;45.080;7.634;2023-11-18T15:00:05;12.02;;;4.18;;
9942;SDS011;5010;45.080;7.634;2023-11-18T15:02:43;12.32;;;4.10;;
9942;SDS011;5010;45.080;7.634;2023-11-18T15:05:13;13.05;;;4.90;;
9942;SDS011;5010;45.080;7.634;2023-11-18T15:07:43;13.07;;;4.32;;
9942;SDS011;5010;45.080;7.634;2023-11-18T15:10:14;12.80;;;4.82;;
9942;SDS011;5010;45.080;7.634;2023-11-18T15:12:44;13.00;;;4.82;;
9942;SDS011;5010;45.080;7.634;2023-11-18T15:15:11;12.85;;;5.60;;
9942;SDS011;5010;45.080;7.634;2023-11-18T15:17:43;12.55;;;4.85;;
9942;SDS011;5010;45.080;7.634;2023-11-18T15:20:11;15.23;;;5.78;;